Jamestown Regional Airport
KJMS : now visible

Airfield :











YOU CAN JOIN US ON...

 
LOGIN :

Register | Disclaimer

   EN    FR    IT 

 









Legend :    VFR   Marginal VFR   IFR   Intensive IFR   Very Intensive IFR
Visi :
Ceiling :
>= 8 km
>= 3000ft
5 to 8 km
1000 to 3000 ft
1500m to 5 km
500 to 1000 ft
800 to 1500m
200 to 500 ft
< 800m
< 200 ft
Symbols :   Thunderstorms  Fog  Heavy snow  Heavy precipitations  Wind > 20 kt






- Airport Elevation : 1500 ft
- IATA code : JMS


KJMS - Jamestown Regional

CURRENT METAR :
  • 021256Z AUTO 35021G30KT 10SM OVC006 M08/M11 A2953 RMK AO2 PK WND 35030/1253 SLP025 T10831106

EXPIRED METARs :
  • 021156Z AUTO 34018KT 10SM BKN006 M07/M09 A2948 RMK AO2 PK WND 35027/1134 SLP006 T10721094 11028 21078 51011
  • 021142Z AUTO 34018G27KT 10SM SCT007 SCT016 M07/M09 A2947 RMK AO2 PK WND 35027/1134 T10721094
  • 021135Z AUTO 34020G27KT 10SM SCT016 M07/M09 A2947 RMK AO2 PK WND 35027/1134 T10721094
  • 021111Z AUTO 33017G22KT 10SM BKN016 M06/M08 A2948 RMK AO2 T10611083
  • 021056Z AUTO 34013KT 10SM CLR M06/M08 A2948 RMK AO2 SLP004 T10611083

TAF KJMS
Valid from the 02 at 12:00 until the 03 at 12:00 UTC


021133Z 0212/0312 34015G25KT P6SM BKN015
FM021600 32021G31KT 1/2SM SN BLSN BKN010 OVC020
FM022100 32022G32KT 1SM -SN BLSN OVC020
FM030200 30020G30KT 4SM BLSN SCT020
FM030500 30015G25KT P6SM SCT200
KZMP FIR / North America



MET'MAP, your aeronautical weather chart ! - Copyright ORBIFLY December 2007 - Disclaimer

ORBIFLY MET'MAP TEAM :

Programming & Development : Alexandra Zaïnal
Original concept : Baudouin d'Aumeries
Technical & hardware support : Manuel Goepfert
Assistance : Marc-Olivier Méhu




SOURCES & CREDITS :

   NOAA       Earth
Advisory